Time;durP1;ratioP1;P1;durP2;ratioP2;P2;SDS_P1;SDS_P2;PMS_P1;PMS_P2;Temp;Humidity;BMP_temperature;BMP_pressure;BME280_temperature;BME280_humidity;BME280_pressure;Samples;Min_cycle;Max_cycle;Signal;HPM_P1;HPM_P2
2023/02/15 00:01:52;;;;;;;30.00;23.58;;;3.80;99.90;;;;;;4993971;28;92544;-75
2023/02/15 00:04:21;;;;;;;33.05;23.90;;;3.80;99.90;;;;;;4977591;28;92487;-75
2023/02/15 00:06:49;;;;;;;30.10;23.52;;;3.80;99.90;;;;;;4994983;28;92431;-75
2023/02/15 00:09:16;;;;;;;29.08;22.27;;;3.70;99.90;;;;;;4993721;28;95626;-76
2023/02/15 00:11:49;;;;;;;28.70;23.15;;;3.70;99.90;;;;;;4995014;28;92475;-75
2023/02/15 00:14:22;;;;;;;26.33;21.33;;;3.70;99.90;;;;;;4979024;28;91769;-75
2023/02/15 00:16:50;;;;;;;26.30;21.35;;;3.60;99.90;;;;;;4993893;28;93599;-75
2023/02/15 00:19:19;;;;;;;26.40;21.00;;;3.60;99.90;;;;;;4994888;28;93240;-75
2023/02/15 00:21:48;;;;;;;24.80;20.35;;;3.60;99.90;;;;;;4992380;28;94812;-75
2023/02/15 00:24:16;;;;;;;24.65;20.27;;;3.50;99.90;;;;;;4977344;28;92539;-75
2023/02/15 00:26:45;;;;;;;23.17;19.58;;;3.50;99.90;;;;;;4994809;28;93788;-75
2023/02/15 00:29:13;;;;;;;22.52;18.98;;;3.50;99.90;;;;;;4993583;28;93385;-75
2023/02/15 00:31:40;;;;;;;21.17;18.77;;;3.50;99.90;;;;;;4993972;28;92977;-75
2023/02/15 00:34:15;;;;;;;20.65;18.45;;;3.40;99.90;;;;;;4993641;28;92557;-75
2023/02/15 00:36:43;;;;;;;21.13;18.58;;;3.40;99.90;;;;;;4994907;28;93503;-75
2023/02/15 00:39:10;;;;;;;21.27;18.98;;;3.40;99.90;;;;;;4995075;28;93030;-75
2023/02/15 00:41:38;;;;;;;21.10;18.17;;;3.30;99.90;;;;;;4993565;28;92480;-75
2023/02/15 00:44:05;;;;;;;19.30;17.20;;;3.30;99.90;;;;;;4993338;28;92473;-75
2023/02/15 00:46:33;;;;;;;21.02;18.80;;;3.30;99.90;;;;;;4975726;28;97714;-75
2023/02/15 00:49:00;;;;;;;21.20;19.00;;;3.20;99.90;;;;;;4994296;28;95512;-75
2023/02/15 00:51:27;;;;;;;21.08;18.83;;;3.20;99.90;;;;;;4993362;28;92505;-75
2023/02/15 00:53:54;;;;;;;22.20;19.20;;;3.20;99.90;;;;;;4993174;28;92562;-75
2023/02/15 00:56:21;;;;;;;24.30;20.00;;;3.20;99.90;;;;;;4977079;28;93796;-75
2023/02/15 00:58:48;;;;;;;24.20;19.05;;;3.10;99.90;;;;;;4976932;28;92962;-75
2023/02/15 01:01:17;;;;;;;22.73;19.42;;;3.10;99.90;;;;;;4977044;28;92506;-75
2023/02/15 01:03:46;;;;;;;22.05;19.00;;;3.10;99.90;;;;;;4994816;28;91727;-75
2023/02/15 01:06:15;;;;;;;24.00;19.20;;;3.00;99.90;;;;;;4993006;28;96264;-75
2023/02/15 01:08:45;;;;;;;21.27;17.77;;;3.00;99.90;;;;;;4993097;28;95956;-75
2023/02/15 01:11:21;;;;;;;20.20;17.95;;;3.00;99.90;;;;;;4993123;28;94827;-76
2023/02/15 01:13:52;;;;;;;21.02;18.63;;;3.00;99.90;;;;;;4994652;28;92508;-75
2023/02/15 01:16:20;;;;;;;20.60;18.40;;;2.90;99.90;;;;;;4992784;28;96131;-75
2023/02/15 01:18:48;;;;;;;20.42;18.35;;;2.90;99.90;;;;;;4992910;28;95834;-75
2023/02/15 01:21:21;;;;;;;24.38;20.30;;;2.90;99.90;;;;;;4994420;28;92932;-75
2023/02/15 01:23:48;;;;;;;22.10;18.70;;;2.90;99.90;;;;;;4993023;28;92572;-75
2023/02/15 01:26:18;;;;;;;22.73;19.08;;;2.90;99.90;;;;;;4976538;28;95708;-76
2023/02/15 01:28:46;;;;;;;20.92;17.90;;;2.80;99.90;;;;;;4976749;28;95562;-75
2023/02/15 01:31:15;;;;;;;22.55;19.80;;;2.80;99.90;;;;;;4976479;28;92467;-75
2023/02/15 01:33:45;;;;;;;22.40;19.17;;;2.80;99.90;;;;;;4995142;28;92456;-75
2023/02/15 01:36:12;;;;;;;22.02;19.20;;;2.80;99.90;;;;;;4978287;28;95592;-76
2023/02/15 01:38:41;;;;;;;23.15;18.92;;;2.80;99.90;;;;;;4995997;28;95662;-75
2023/02/15 01:41:25;;;;;;;24.40;19.95;;;2.80;99.90;;;;;;4995808;28;92644;-75
2023/02/15 01:47:47;;;;;;;22.95;20.25;;;2.80;99.90;;;;;;4996325;28;93622;-75
2023/02/15 01:50:27;;;;;;;33.28;24.23;;;2.70;99.90;;;;;;4997338;28;92430;-75
2023/02/15 01:53:12;;;;;;;35.03;24.85;;;2.70;99.90;;;;;;4995654;28;92519;-75
2023/02/15 01:55:45;;;;;;;30.00;22.45;;;2.80;99.90;;;;;;4997455;28;91707;-75
2023/02/15 01:58:15;;;;;;;36.60;24.40;;;2.70;99.90;;;;;;4995778;28;95871;-75
2023/02/15 02:00:43;;;;;;;73.07;40.63;;;2.70;99.90;;;;;;4995274;28;94644;-75
2023/02/15 02:03:10;;;;;;;50.80;31.77;;;2.80;99.90;;;;;;4996065;28;95159;-75
2023/02/15 02:05:39;;;;;;;38.25;26.50;;;2.70;99.90;;;;;;4995574;28;92525;-75
2023/02/15 02:08:09;;;;;;;28.88;22.92;;;2.80;99.90;;;;;;4996906;28;92359;-75
2023/02/15 02:10:36;;;;;;;27.27;21.20;;;2.80;99.90;;;;;;4978542;28;95718;-75
2023/02/15 02:13:05;;;;;;;30.45;23.48;;;2.80;99.90;;;;;;4995604;28;92542;-75
2023/02/15 02:15:44;;;;;;;26.15;21.70;;;2.80;99.90;;;;;;4995619;28;92983;-74
2023/02/15 02:18:24;;;;;;;26.40;21.17;;;2.80;99.90;;;;;;4996813;28;92444;-74
2023/02/15 02:21:05;;;;;;;26.70;21.73;;;2.70;99.90;;;;;;4996865;28;93206;-75
2023/02/15 02:23:41;;;;;;;26.63;22.05;;;2.80;99.90;;;;;;4995325;28;92843;-76
2023/02/15 02:26:30;;;;;;;28.30;21.83;;;2.70;99.90;;;;;;4997168;28;92482;-75
2023/02/15 02:29:10;;;;;;;25.67;20.85;;;2.80;99.90;;;;;;4993980;28;98231;-75
2023/02/15 02:31:52;;;;;;;25.77;20.55;;;2.70;99.90;;;;;;4995044;28;97836;-75
2023/02/15 02:34:29;;;;;;;32.35;23.67;;;2.70;99.90;;;;;;4995603;28;92584;-75
2023/02/15 02:37:30;;;;;;;30.42;23.02;;;2.70;99.90;;;;;;4994967;28;92581;-75
2023/02/15 02:40:09;;;;;;;27.38;22.73;;;2.70;99.90;;;;;;4994958;28;95486;-75
2023/02/15 02:42:44;;;;;;;32.83;23.48;;;2.60;99.90;;;;;;4994789;28;96118;-75
2023/02/15 02:45:23;;;;;;;25.42;20.90;;;2.70;99.90;;;;;;4994124;28;92562;-75
2023/02/15 02:47:58;;;;;;;28.13;21.25;;;2.60;99.90;;;;;;4995215;28;91707;-75
2023/02/15 02:50:29;;;;;;;30.05;23.17;;;2.60;99.90;;;;;;4978510;28;95443;-75
2023/02/15 02:52:58;;;;;;;32.80;24.45;;;2.60;99.90;;;;;;4994331;28;93182;-75
2023/02/15 02:55:56;;;;;;;30.67;22.90;;;2.60;99.90;;;;;;4995335;28;94843;-76
2023/02/15 02:58:33;;;;;;;33.88;24.30;;;2.60;99.90;;;;;;4991965;28;92476;-75
2023/02/15 03:01:08;;;;;;;31.65;22.95;;;2.50;99.90;;;;;;4994601;28;95844;-75
2023/02/15 03:03:47;;;;;;;31.67;23.38;;;2.50;99.90;;;;;;4994694;28;94507;-75
2023/02/15 03:06:27;;;;;;;36.40;23.55;;;2.50;99.90;;;;;;4995020;28;92544;-75
2023/02/15 03:09:01;;;;;;;33.03;23.60;;;2.50;99.90;;;;;;4994535;28;92767;-76
2023/02/15 03:11:29;;;;;;;39.90;26.42;;;2.40;99.90;;;;;;4996363;28;93062;-76
2023/02/15 03:13:57;;;;;;;42.75;26.65;;;2.40;99.90;;;;;;4994847;28;95593;-76
2023/02/15 03:16:27;;;;;;;46.47;28.48;;;2.50;99.90;;;;;;4994832;28;92464;-76
2023/02/15 03:18:59;;;;;;;45.45;27.90;;;2.50;99.90;;;;;;4994423;28;92519;-76
2023/02/15 03:22:10;;;;;;;53.58;28.10;;;2.50;99.90;;;;;;4976885;28;98079;-76
2023/02/15 03:24:48;;;;;;;55.80;30.67;;;2.60;99.90;;;;;;4994365;28;98096;-76
2023/02/15 03:27:22;;;;;;;68.28;31.05;;;2.60;99.90;;;;;;4994566;28;92893;-76
2023/02/15 03:29:54;;;;;;;128.87;35.77;;;2.60;99.90;;;;;;4994480;28;92633;-76
2023/02/15 03:32:25;;;;;;;104.97;31.92;;;2.60;99.90;;;;;;4994318;28;95823;-76
2023/02/15 03:34:52;;;;;;;112.80;33.20;;;2.60;99.90;;;;;;4995337;28;93037;-76
2023/02/15 03:37:38;;;;;;;114.82;34.72;;;2.60;99.90;;;;;;4977971;28;92948;-76
2023/02/15 03:43:21;;;;;;;115.88;47.58;;;2.60;99.90;;;;;;4993979;28;94252;-76
2023/02/15 03:45:55;;;;;;;68.32;35.38;;;2.60;99.90;;;;;;4994024;28;95859;-76
2023/02/15 03:48:46;;;;;;;61.95;31.27;;;2.60;99.90;;;;;;4993309;28;95088;-76
2023/02/15 03:51:34;;;;;;;51.58;32.20;;;2.60;99.90;;;;;;4978066;28;92471;-76
2023/02/15 03:54:10;;;;;;;56.17;33.33;;;2.60;99.90;;;;;;4993660;28;96164;-76
2023/02/15 03:56:39;;;;;;;66.78;34.33;;;2.60;99.90;;;;;;4977259;28;95637;-76
2023/02/15 04:02:12;;;;;;;78.43;37.60;;;2.70;99.90;;;;;;4995260;28;92355;-76
2023/02/15 04:04:44;;;;;;;70.65;35.60;;;2.70;99.90;;;;;;4977126;28;96225;-76
2023/02/15 04:07:11;;;;;;;67.10;36.50;;;2.70;99.90;;;;;;4995716;28;92889;-76
2023/02/15 04:12:24;;;;;;;71.57;37.67;;;2.70;99.90;;;;;;4995438;28;92688;-76
2023/02/15 04:17:37;;;;;;;63.08;37.38;;;2.80;99.90;;;;;;4995163;28;95696;-76
2023/02/15 04:25:36;;;;;;;63.38;35.40;;;2.70;99.90;;;;;;4993636;28;95627;-76
2023/02/15 04:28:03;;;;;;;65.20;36.25;;;2.70;99.90;;;;;;4977082;28;95666;-76
2023/02/15 04:30:30;;;;;;;66.78;37.25;;;2.70;99.90;;;;;;4995132;28;93046;-76
2023/02/15 04:32:57;;;;;;;61.70;35.45;;;2.80;99.90;;;;;;4994081;28;91711;-76
2023/02/15 04:35:25;;;;;;;68.57;38.65;;;2.80;99.90;;;;;;4994965;28;93264;-76
2023/02/15 04:37:52;;;;;;;59.55;33.63;;;2.80;99.90;;;;;;4976876;28;95972;-76
2023/02/15 04:40:19;;;;;;;55.90;33.55;;;2.80;99.90;;;;;;4976065;28;94734;-76
2023/02/15 04:42:49;;;;;;;73.47;40.15;;;2.80;99.90;;;;;;4993344;28;92551;-76
2023/02/15 04:45:17;;;;;;;70.55;39.00;;;2.80;99.90;;;;;;4993372;28;92464;-76
2023/02/15 04:47:44;;;;;;;71.43;38.83;;;2.80;99.90;;;;;;4994869;28;93061;-76
2023/02/15 04:50:11;;;;;;;83.43;41.50;;;2.80;99.90;;;;;;4994612;28;92600;-76
2023/02/15 04:52:39;;;;;;;79.97;40.00;;;2.80;99.90;;;;;;4993136;28;93155;-76
2023/02/15 04:55:06;;;;;;;74.70;40.63;;;2.80;99.90;;;;;;4993047;28;93103;-76
2023/02/15 04:57:33;;;;;;;71.00;38.17;;;2.80;99.90;;;;;;4994991;28;91926;-76
2023/02/15 05:00:00;;;;;;;83.95;42.35;;;2.80;99.90;;;;;;4993319;28;92488;-75
2023/02/15 05:02:27;;;;;;;73.07;38.63;;;2.80;99.90;;;;;;4994780;28;92520;-76
2023/02/15 05:04:54;;;;;;;76.88;42.15;;;2.80;99.90;;;;;;4991808;28;94936;-76
2023/02/15 05:07:21;;;;;;;83.40;43.17;;;2.80;99.90;;;;;;4993877;28;95471;-76
2023/02/15 05:09:48;;;;;;;89.35;43.88;;;2.80;99.90;;;;;;4996560;28;92418;-76
2023/02/15 05:12:15;;;;;;;77.47;41.50;;;2.80;99.90;;;;;;4996403;28;92563;-76
2023/02/15 05:14:42;;;;;;;87.95;41.80;;;2.80;99.90;;;;;;4980119;28;96345;-76
2023/02/15 05:17:09;;;;;;;83.68;41.97;;;2.80;99.90;;;;;;4996452;28;93401;-76
2023/02/15 05:19:36;;;;;;;76.25;41.33;;;2.80;99.90;;;;;;4996916;28;92381;-76
2023/02/15 05:22:03;;;;;;;83.05;42.50;;;2.80;99.90;;;;;;4996187;28;97051;-75
2023/02/15 05:30:01;;;;;;;92.13;45.13;;;2.70;99.90;;;;;;4996593;28;94852;-76
2023/02/15 05:32:28;;;;;;;77.10;41.97;;;2.70;99.90;;;;;;4996559;28;92548;-76
2023/02/15 05:34:55;;;;;;;81.05;41.83;;;2.70;99.90;;;;;;4997705;28;93146;-76
2023/02/15 05:37:22;;;;;;;85.07;42.28;;;2.70;99.90;;;;;;4997414;28;93097;-76
2023/02/15 05:39:49;;;;;;;75.97;40.78;;;2.60;99.90;;;;;;4979749;28;92487;-76
2023/02/15 05:42:16;;;;;;;74.25;39.95;;;2.60;99.90;;;;;;4979760;28;92546;-76
2023/02/15 05:44:43;;;;;;;79.72;40.67;;;2.60;99.90;;;;;;4995979;28;96196;-76
2023/02/15 05:47:10;;;;;;;78.82;42.70;;;2.60;99.90;;;;;;4995887;28;103986;-76
2023/02/15 05:49:37;;;;;;;85.95;41.30;;;2.60;99.90;;;;;;4997459;28;92373;-76
2023/02/15 05:52:04;;;;;;;75.00;40.10;;;2.50;99.90;;;;;;4995621;28;92472;-76
2023/02/15 05:54:31;;;;;;;69.32;38.10;;;2.50;99.90;;;;;;4995982;28;95762;-76
2023/02/15 05:56:58;;;;;;;70.53;38.20;;;2.50;99.90;;;;;;4979544;28;95421;-75
2023/02/15 05:59:25;;;;;;;63.28;37.67;;;2.50;99.90;;;;;;4995813;28;92509;-76
2023/02/15 06:01:52;;;;;;;64.22;36.08;;;2.40;99.90;;;;;;4996168;28;92496;-75
2023/02/15 06:04:19;;;;;;;69.90;38.60;;;2.40;99.90;;;;;;4995375;28;96516;-76
2023/02/15 06:06:46;;;;;;;66.13;36.95;;;2.40;99.90;;;;;;4979459;28;93072;-76
2023/02/15 06:09:14;;;;;;;66.22;37.65;;;2.40;99.90;;;;;;4995610;28;92570;-76
2023/02/15 06:11:41;;;;;;;63.45;36.88;;;2.40;99.90;;;;;;4997339;28;93414;-75
2023/02/15 06:14:08;;;;;;;62.85;35.20;;;2.30;99.90;;;;;;4978659;28;96049;-76
2023/02/15 06:16:35;;;;;;;70.93;37.88;;;2.30;99.90;;;;;;4978844;28;95889;-75
2023/02/15 06:19:03;;;;;;;63.10;35.78;;;2.30;99.90;;;;;;4995765;28;94877;-75
2023/02/15 06:21:30;;;;;;;70.93;37.30;;;2.30;99.90;;;;;;4995800;28;92430;-76
2023/02/15 06:23:57;;;;;;;64.18;35.90;;;2.20;99.90;;;;;;4995357;28;93163;-76
2023/02/15 06:26:24;;;;;;;69.22;37.88;;;2.20;99.90;;;;;;4995386;28;93141;-76
2023/02/15 06:28:51;;;;;;;65.18;37.88;;;2.20;99.90;;;;;;4978802;28;92648;-76
2023/02/15 06:31:18;;;;;;;68.45;36.90;;;2.20;99.90;;;;;;4996833;28;93053;-76
2023/02/15 06:33:45;;;;;;;71.88;37.00;;;2.20;99.90;;;;;;4996546;28;95805;-76
2023/02/15 06:36:12;;;;;;;67.72;37.05;;;2.20;99.90;;;;;;4995268;28;95665;-76
2023/02/15 06:38:39;;;;;;;70.35;38.13;;;2.20;99.90;;;;;;4995538;28;92511;-76
2023/02/15 06:41:06;;;;;;;67.05;36.60;;;2.20;99.90;;;;;;4996971;28;93595;-76
2023/02/15 06:43:34;;;;;;;66.43;35.20;;;2.20;99.90;;;;;;4995115;28;96742;-76
2023/02/15 06:46:01;;;;;;;64.07;36.53;;;2.20;99.90;;;;;;4994928;28;97816;-76
2023/02/15 06:48:28;;;;;;;73.90;39.47;;;2.20;99.90;;;;;;4978762;28;92506;-76
2023/02/15 06:50:55;;;;;;;71.10;39.92;;;2.30;99.90;;;;;;4995450;28;92590;-76
2023/02/15 06:53:22;;;;;;;75.20;39.83;;;2.30;99.90;;;;;;4994257;28;96180;-76
2023/02/15 06:55:50;;;;;;;72.72;39.78;;;2.30;99.90;;;;;;4994783;28;95805;-76
2023/02/15 06:58:17;;;;;;;73.45;37.67;;;2.40;99.90;;;;;;4994972;28;93006;-76
2023/02/15 07:00:43;;;;;;;70.05;37.75;;;2.40;99.90;;;;;;4995601;28;91735;-76
2023/02/15 07:03:14;;;;;;;71.30;37.47;;;2.40;99.90;;;;;;4995905;28;93287;-76
2023/02/15 07:05:41;;;;;;;62.38;35.60;;;2.50;99.90;;;;;;4994983;28;93100;-76
2023/02/15 07:08:08;;;;;;;73.32;37.67;;;2.50;99.90;;;;;;4994930;28;94764;-76
2023/02/15 07:10:35;;;;;;;70.03;38.25;;;2.60;99.90;;;;;;4994898;28;92407;-76
2023/02/15 07:13:02;;;;;;;73.25;38.50;;;2.60;99.90;;;;;;4994680;28;93248;-76
2023/02/15 07:15:29;;;;;;;62.20;36.20;;;2.70;99.90;;;;;;4994444;28;92994;-76
2023/02/15 07:17:58;;;;;;;63.05;36.33;;;2.70;99.90;;;;;;4994983;28;92434;-76
2023/02/15 07:20:25;;;;;;;73.07;36.95;;;2.80;99.90;;;;;;4961955;28;92427;-76
2023/02/15 07:22:52;;;;;;;67.57;36.22;;;2.90;99.90;;;;;;4978159;28;92578;-76
2023/02/15 07:25:19;;;;;;;60.80;35.05;;;3.00;99.90;;;;;;4994813;28;93339;-76
2023/02/15 07:27:47;;;;;;;64.30;34.30;;;3.00;99.90;;;;;;4995820;28;92577;-76
2023/02/15 07:30:16;;;;;;;61.90;35.67;;;3.10;99.90;;;;;;4995470;28;93269;-76
2023/02/15 07:35:32;;;;;;;51.38;33.42;;;3.30;99.90;;;;;;4995610;28;95241;-76
2023/02/15 07:38:00;;;;;;;49.70;30.23;;;3.40;99.90;;;;;;4994292;28;92918;-76
2023/02/15 07:40:27;;;;;;;48.25;29.77;;;3.50;99.90;;;;;;4994364;28;92578;-76
2023/02/15 07:42:58;;;;;;;51.53;31.35;;;3.70;99.90;;;;;;4994715;28;92621;-76
2023/02/15 07:45:26;;;;;;;45.40;31.15;;;3.90;99.90;;;;;;4995584;28;93350;-76
2023/02/15 07:47:53;;;;;;;41.88;27.77;;;4.00;99.90;;;;;;4994416;28;92588;-76
2023/02/15 07:50:20;;;;;;;41.22;27.95;;;4.10;99.90;;;;;;4977954;28;91783;-76
2023/02/15 07:52:47;;;;;;;38.78;26.23;;;4.30;99.90;;;;;;4976422;28;96014;-76
2023/02/15 07:55:14;;;;;;;45.40;28.33;;;4.40;99.90;;;;;;4977747;28;95752;-77
2023/02/15 07:57:43;;;;;;;41.85;27.85;;;4.60;99.90;;;;;;4994261;28;94816;-76
2023/02/15 08:00:13;;;;;;;41.53;26.25;;;4.70;99.90;;;;;;4994219;28;92560;-76
2023/02/15 08:02:40;;;;;;;38.08;25.80;;;4.80;99.90;;;;;;4994912;28;93337;-76
2023/02/15 08:05:07;;;;;;;40.75;27.63;;;4.80;99.90;;;;;;4995029;28;93174;-76
2023/02/15 08:07:34;;;;;;;40.78;26.33;;;4.80;99.90;;;;;;4993922;28;92696;-76
2023/02/15 08:10:01;;;;;;;37.15;25.85;;;4.90;99.90;;;;;;4994160;28;92476;-75
2023/02/15 08:12:29;;;;;;;40.60;27.35;;;4.90;99.90;;;;;;4994885;28;93262;-74
2023/02/15 08:14:56;;;;;;;37.78;24.52;;;5.00;99.90;;;;;;4994389;28;93049;-75
2023/02/15 08:17:23;;;;;;;37.78;26.88;;;5.10;99.90;;;;;;4993659;28;92524;-75
2023/02/15 08:19:50;;;;;;;41.50;25.48;;;5.20;99.90;;;;;;4993797;28;92484;-75
2023/02/15 08:22:17;;;;;;;34.03;23.92;;;5.40;99.90;;;;;;4992397;28;95943;-75
2023/02/15 08:24:44;;;;;;;36.60;24.25;;;5.50;99.90;;;;;;4993391;28;95414;-75
2023/02/15 08:27:11;;;;;;;35.03;24.38;;;5.60;99.90;;;;;;4961367;28;92831;-74
2023/02/15 08:29:39;;;;;;;39.38;25.38;;;5.80;99.90;;;;;;4976966;28;92606;-75
2023/02/15 08:32:09;;;;;;;41.38;26.73;;;5.80;99.90;;;;;;4995034;28;93403;-75
2023/02/15 08:34:40;;;;;;;37.50;25.85;;;5.80;99.90;;;;;;4993667;28;93069;-75
2023/02/15 08:37:07;;;;;;;40.75;26.58;;;5.90;99.90;;;;;;4993052;28;92463;-74
2023/02/15 08:39:34;;;;;;;41.90;27.90;;;5.90;99.90;;;;;;4994768;28;99907;-75
2023/02/15 08:42:01;;;;;;;40.10;26.55;;;6.00;99.90;;;;;;4995020;28;93305;-75
2023/02/15 08:44:29;;;;;;;41.83;27.20;;;6.00;99.90;;;;;;4998061;28;93265;-75
2023/02/15 08:47:02;;;;;;;42.90;27.45;;;6.00;99.90;;;;;;4997459;28;95275;-75
2023/02/15 08:49:29;;;;;;;42.97;26.80;;;6.00;99.90;;;;;;4996940;28;92549;-75
2023/02/15 08:51:56;;;;;;;41.42;27.38;;;6.00;99.90;;;;;;4980377;28;95794;-75
2023/02/15 08:54:23;;;;;;;40.30;27.65;;;6.10;99.90;;;;;;4980449;28;95093;-75
2023/02/15 08:56:50;;;;;;;37.97;27.40;;;6.10;99.90;;;;;;4980642;28;92512;-75
2023/02/15 08:59:22;;;;;;;39.72;26.85;;;6.10;99.90;;;;;;4998416;28;92464;-75
2023/02/15 09:01:51;;;;;;;40.85;26.98;;;6.20;99.90;;;;;;4996265;28;95856;-75
2023/02/15 09:04:20;;;;;;;42.95;26.38;;;6.20;99.90;;;;;;4998367;28;93421;-75
2023/02/15 09:06:48;;;;;;;40.78;26.10;;;6.20;99.90;;;;;;4980605;28;92622;-75
2023/02/15 09:09:19;;;;;;;41.90;26.13;;;6.20;99.90;;;;;;4996758;28;92523;-75
2023/02/15 09:11:49;;;;;;;41.30;27.42;;;6.20;99.90;;;;;;4977706;28;98265;-75
2023/02/15 09:14:21;;;;;;;42.65;27.58;;;6.30;99.90;;;;;;4998044;28;95546;-75
2023/02/15 09:16:50;;;;;;;43.38;27.65;;;6.30;99.90;;;;;;4979781;28;96435;-76
2023/02/15 09:19:20;;;;;;;40.72;27.67;;;6.40;99.90;;;;;;4996444;28;92762;-76
2023/02/15 09:21:47;;;;;;;43.17;27.67;;;6.40;99.90;;;;;;4997656;28;93308;-75
2023/02/15 09:24:16;;;;;;;41.05;27.30;;;6.50;99.90;;;;;;4997744;28;93025;-75
2023/02/15 09:26:48;;;;;;;41.00;27.65;;;6.60;99.90;;;;;;4996435;28;93060;-75
2023/02/15 09:29:16;;;;;;;39.97;27.70;;;6.70;99.90;;;;;;4997348;28;92007;-75
2023/02/15 09:31:46;;;;;;;40.78;27.02;;;6.80;99.90;;;;;;4995890;28;94980;-75
2023/02/15 09:34:18;;;;;;;38.67;26.55;;;6.90;99.90;;;;;;4997450;28;93101;-75
2023/02/15 09:36:46;;;;;;;40.20;27.77;;;7.00;99.90;;;;;;4996539;28;94821;-75
2023/02/15 09:39:18;;;;;;;41.55;27.50;;;7.00;99.90;;;;;;4996570;28;92840;-75
2023/02/15 09:42:03;;;;;;;39.47;26.08;;;7.10;99.90;;;;;;4997255;28;93217;-75
2023/02/15 09:44:49;;;;;;;42.45;25.92;;;7.20;99.90;;;;;;4997632;28;92571;-75
2023/02/15 09:47:29;;;;;;;41.80;26.75;;;7.30;99.90;;;;;;4997342;28;92467;-75
2023/02/15 09:50:02;;;;;;;41.83;28.27;;;7.40;99.90;;;;;;4997551;28;92333;-75
2023/02/15 09:52:56;;;;;;;39.85;28.70;;;7.40;99.90;;;;;;4997391;28;93224;-75
2023/02/15 09:55:40;;;;;;;40.08;27.55;;;7.50;99.90;;;;;;4997931;28;93053;-75
2023/02/15 09:58:19;;;;;;;38.33;26.58;;;7.60;99.90;;;;;;4996388;28;92543;-75
2023/02/15 10:01:08;;;;;;;40.67;27.55;;;7.70;99.90;;;;;;4995780;28;92441;-75
2023/02/15 10:04:04;;;;;;;37.35;24.55;;;7.80;99.90;;;;;;4996072;28;95631;-75
2023/02/15 10:06:41;;;;;;;39.38;27.08;;;7.80;99.90;;;;;;4988158;28;94411;-75
2023/02/15 10:09:08;;;;;;;38.70;26.17;;;7.90;99.90;;;;;;4996182;28;92437;-75
2023/02/15 10:11:59;;;;;;;40.15;27.95;;;8.00;99.90;;;;;;4997300;28;92431;-76
2023/02/15 10:14:37;;;;;;;37.72;26.60;;;8.10;99.90;;;;;;4995559;28;95733;-75
2023/02/15 10:17:07;;;;;;;38.67;26.45;;;8.10;99.90;;;;;;4997425;28;92808;-76
2023/02/15 10:19:57;;;;;;;39.92;27.58;;;8.20;99.90;;;;;;4996837;28;92460;-75
2023/02/15 10:22:52;;;;;;;42.60;26.85;;;8.30;99.90;;;;;;4997589;28;91604;-75
2023/02/15 10:25:46;;;;;;;38.05;26.88;;;8.40;99.90;;;;;;4996977;28;93214;-75
2023/02/15 10:28:18;;;;;;;42.53;27.95;;;8.40;99.90;;;;;;4995270;28;95471;-75
2023/02/15 10:31:05;;;;;;;39.17;27.85;;;8.40;99.90;;;;;;4994079;28;94890;-75
2023/02/15 10:33:42;;;;;;;41.83;28.83;;;8.50;99.90;;;;;;4996895;28;92490;-76
2023/02/15 10:36:40;;;;;;;40.13;27.25;;;8.60;99.90;;;;;;4995229;28;95431;-75
2023/02/15 10:39:31;;;;;;;38.92;27.83;;;8.70;99.90;;;;;;4995203;28;95361;-75
2023/02/15 10:42:15;;;;;;;40.60;28.50;;;8.70;99.90;;;;;;4996600;28;92463;-75
2023/02/15 10:45:03;;;;;;;44.65;29.23;;;8.90;99.90;;;;;;4996527;28;92512;-74
2023/02/15 10:48:16;;;;;;;44.22;30.00;;;8.90;99.90;;;;;;4995424;28;93280;-75
2023/02/15 10:50:52;;;;;;;41.13;29.40;;;9.00;99.90;;;;;;4995177;28;95384;-75
2023/02/15 10:53:22;;;;;;;40.38;25.98;;;9.10;99.90;;;;;;4996296;28;92321;-75
2023/02/15 10:56:43;;;;;;;41.38;28.00;;;9.20;99.90;;;;;;4995192;28;92434;-75
2023/02/15 10:59:27;;;;;;;43.40;29.63;;;9.40;99.90;;;;;;4920480;28;98406;-75
2023/02/15 11:02:01;;;;;;;41.97;29.63;;;9.40;99.90;;;;;;4992494;28;95517;-74
2023/02/15 11:04:34;;;;;;;42.55;29.40;;;9.50;99.90;;;;;;4996043;28;92427;-74
2023/02/15 11:07:08;;;;;;;41.22;29.42;;;9.60;99.90;;;;;;4994222;28;92518;-76
2023/02/15 11:09:47;;;;;;;42.45;30.83;;;9.70;99.90;;;;;;4996318;28;93885;-75
2023/02/15 11:12:18;;;;;;;42.67;29.70;;;9.80;99.90;;;;;;4996342;28;93345;-76
2023/02/15 11:14:57;;;;;;;44.33;30.73;;;9.80;99.90;;;;;;4994660;28;92495;-75
2023/02/15 11:17:43;;;;;;;40.22;29.17;;;9.90;99.90;;;;;;4995055;28;91863;-75
2023/02/15 11:20:32;;;;;;;41.90;30.30;;;10.10;99.90;;;;;;4996195;28;93310;-75
2023/02/15 11:23:01;;;;;;;43.85;31.20;;;10.20;99.90;;;;;;4994383;28;93355;-75
2023/02/15 11:25:32;;;;;;;42.80;29.08;;;10.20;99.90;;;;;;4993153;28;94889;-75
2023/02/15 11:28:03;;;;;;;41.28;29.85;;;10.30;99.90;;;;;;4994752;28;92571;-75
2023/02/15 11:30:53;;;;;;;42.45;29.90;;;10.40;99.90;;;;;;4994265;28;95974;-75
2023/02/15 11:33:29;;;;;;;40.42;28.85;;;10.50;99.90;;;;;;4995790;28;92973;-75
2023/02/15 11:36:05;;;;;;;43.97;30.95;;;10.60;99.90;;;;;;4995532;28;92459;-75
2023/02/15 11:38:34;;;;;;;42.55;28.52;;;10.70;99.90;;;;;;4996052;28;92576;-75
2023/02/15 11:41:11;;;;;;;40.00;29.98;;;10.80;99.90;;;;;;4993938;28;100471;-75
2023/02/15 11:43:39;;;;;;;39.83;28.38;;;11.00;99.90;;;;;;4996023;28;92578;-75
2023/02/15 11:46:10;;;;;;;38.90;29.08;;;11.10;99.90;;;;;;4977187;28;92527;-75
2023/02/15 11:48:38;;;;;;;37.40;28.00;;;11.20;99.90;;;;;;4995920;28;92751;-76
2023/02/15 11:51:09;;;;;;;43.13;29.20;;;11.30;99.90;;;;;;4994030;28;95583;-75
2023/02/15 11:53:37;;;;;;;38.92;28.35;;;11.30;99.90;;;;;;4994982;28;95861;-75
2023/02/15 11:56:16;;;;;;;41.95;29.38;;;11.40;99.90;;;;;;4994272;28;93281;-75
2023/02/15 11:58:58;;;;;;;40.13;29.33;;;11.50;99.90;;;;;;4994302;28;92512;-75
2023/02/15 12:01:42;;;;;;;41.08;29.67;;;11.60;99.90;;;;;;4993750;28;96107;-75
2023/02/15 12:04:09;;;;;;;41.25;28.63;;;11.50;99.90;;;;;;4995162;28;93470;-75
2023/02/15 12:06:43;;;;;;;40.30;29.98;;;11.50;99.90;;;;;;4993875;28;92539;-76
2023/02/15 12:09:28;;;;;;;41.20;27.85;;;11.60;99.90;;;;;;4995525;28;91780;-75
2023/02/15 12:12:26;;;;;;;41.55;28.00;;;11.70;99.90;;;;;;4994047;28;93177;-75
2023/02/15 12:14:55;;;;;;;41.25;28.10;;;11.80;99.90;;;;;;4995452;28;93075;-75
2023/02/15 12:17:32;;;;;;;38.33;27.92;;;11.90;99.90;;;;;;4993902;28;94793;-75
2023/02/15 12:20:27;;;;;;;39.92;28.23;;;12.10;99.90;;;;;;4993637;28;92477;-75
2023/02/15 12:23:15;;;;;;;41.75;27.65;;;12.20;99.90;;;;;;4989575;28;93685;-75
2023/02/15 12:25:51;;;;;;;42.63;28.02;;;12.30;99.90;;;;;;4993351;28;95779;-75
2023/02/15 12:28:26;;;;;;;39.22;28.63;;;12.30;99.90;;;;;;4995045;28;92455;-76
2023/02/15 12:30:56;;;;;;;40.75;28.60;;;12.40;99.90;;;;;;4977149;28;92508;-76
2023/02/15 12:33:26;;;;;;;41.10;29.65;;;12.40;99.90;;;;;;4993423;28;95669;-75
2023/02/15 12:36:03;;;;;;;39.75;28.13;;;12.40;99.90;;;;;;4995186;28;93137;-76
2023/02/15 12:38:31;;;;;;;41.88;27.10;;;12.40;99.90;;;;;;4994961;28;92390;-75
2023/02/15 12:41:04;;;;;;;43.50;29.33;;;12.30;99.90;;;;;;4977279;28;92523;-75
2023/02/15 12:43:33;;;;;;;43.97;28.60;;;12.30;99.90;;;;;;4992416;28;96106;-76
2023/02/15 12:46:25;;;;;;;40.67;29.48;;;12.40;99.90;;;;;;4993036;28;95666;-75
2023/02/15 12:49:26;;;;;;;40.15;28.80;;;12.60;99.90;;;;;;4993723;28;92700;-75
2023/02/15 12:51:55;;;;;;;41.78;30.30;;;12.60;99.90;;;;;;4995049;28;92477;-75
2023/02/15 12:54:22;;;;;;;41.17;28.60;;;12.70;99.90;;;;;;4975769;28;94775;-75
2023/02/15 12:56:49;;;;;;;45.13;29.52;;;12.80;99.90;;;;;;4994896;28;93231;-75
2023/02/15 12:59:20;;;;;;;41.92;29.40;;;12.90;99.90;;;;;;4976515;28;92731;-75
2023/02/15 13:01:51;;;;;;;42.50;29.38;;;13.00;99.90;;;;;;4993532;28;91659;-75
2023/02/15 13:04:23;;;;;;;42.50;29.20;;;13.00;99.90;;;;;;4994032;28;93258;-75
2023/02/15 13:06:53;;;;;;;44.65;29.88;;;13.00;99.90;;;;;;4993124;28;95448;-75
2023/02/15 13:09:35;;;;;;;39.42;29.08;;;13.00;99.90;;;;;;4993343;28;94745;-75
2023/02/15 13:12:27;;;;;;;38.88;27.83;;;13.00;99.90;;;;;;4994501;28;92477;-76
2023/02/15 13:14:55;;;;;;;41.80;29.27;;;13.20;99.90;;;;;;4994634;28;93350;-75
2023/02/15 13:17:33;;;;;;;39.85;28.75;;;13.20;99.90;;;;;;4994101;28;93006;-75
2023/02/15 13:20:18;;;;;;;40.90;28.50;;;13.30;99.90;;;;;;4993161;28;92428;-75
2023/02/15 13:22:47;;;;;;;41.80;28.90;;;13.30;99.90;;;;;;4994596;28;93377;-76
2023/02/15 13:25:19;;;;;;;41.92;28.38;;;13.20;99.90;;;;;;4993843;28;93339;-75
2023/02/15 13:27:50;;;;;;;42.78;27.25;;;13.20;99.90;;;;;;4993042;28;95403;-76
2023/02/15 13:30:35;;;;;;;39.13;27.25;;;13.20;99.90;;;;;;4997682;28;92434;-75
2023/02/15 13:33:16;;;;;;;39.10;26.33;;;13.20;99.90;;;;;;4997933;28;92489;-76